Terminal Aerodrome Forecast
Issued by NWS

Home | Current Version | Previous Version | Text Only | Print | Product List | Glossary On
Versions: 1 2 3 4 5 6 7 8 9 10 11 12 13 14 15 16 17 18 19 20 21 22 23 24 25 26 27 28 29 30 31 32 33 34
000
FTUS41 KBTV 280500 RRA
TAFPBG
TAF
KPBG 280541Z 2806/2906 00000KT 6SM BR VCFG SKC
     FM280900 35004KT P6SM OVC030
     FM281000 35005KT 6SM -RA BR OVC015
     FM281200 36007KT 3SM RA BR VCTS OVC015CB
     FM290000 34008KT 4SM -SHRA BR OVC015=

USA.gov is the U.S. government's official web portal to all federal, state and local government web resources and services.